Ostend, Belgium

9:25 PM CEST on September 01, 2014 (GMT +0200)
Ostend | Change Station
CLOSE
Current Station
Airport
Location: Ostend,
Elevation: 13 ft
Nearby Weather Stations

Elev 13 ft 51.20 °N, 2.86 °E | Updated 5 minutes ago

Mostly Cloudy
Mostly Cloudy
63 °F
Feels Like 63 °F
N
5
Wind Variable Wind from SW

Today
High -- | Low -- °F
--% Chance of Precip.
Yesterday
High -- | Low -- °F
Precip. -- in
7:01 AM 8:34 PM
Waxing Crescent, 43% visible
Pressure 30.15 in
Visibility 6.2 miles
Clouds Mostly Cloudy 900 ft
Dew Point 57 °F
Humidity 82%
Rainfall 0.00 in
Snow Depth Not available.
UV 0 out of 12
Pollen Not available.
Air Quality Not available.
Flu Activity Not available.
METAR EBOS 011920Z 22004KT 180V250 9999 BKN009 17/14 Q1021 NOSIG

More Conditions Fewer Conditions

Pressure 30.15 in
Visibility 6.2 miles
Clouds Mostly Cloudy 900 ft
Dew Point 57 °F
Humidity 82%
Rainfall 0.00 in
Snow Depth Not available.
UV 0 out of 12
Pollen Not available.
Air Quality Not available.
Flu Activity Not available.
METAR EBOS 011920Z 22004KT 180V250 9999 BKN009 17/14 Q1021 NOSIG

More Conditions Fewer Conditions

10-Day Weather Forecast

Almanac

Astronomy

Sep. 01, 2014 Rise Set
Actual Time 7:01 AM CEST 8:34 PM CEST
Civil Twilight 6:26 AM CEST 9:09 PM CEST
Nautical Twilight 5:44 AM CEST 9:51 PM CEST
Astronomical Twilight 4:57 AM CEST 10:38 PM CEST
Moon 2:16 PM CEST 11:37 PM CEST
Length of Visible Light 14h 42m
Length of Day
13h 33m
Tomorrow will be 3m 48s shorter.
Waxing Crescent, 43% of the Moon is Illuminated
Today
Waxing Crescent
Sep 2
First Quarter
Sep 8
Full
Sep 15
Last Quarter
Sep 24
New

Today's Extremes

Country Highs Country Lows

Community

WunderPhotos

Upload Photos

1,749,378 photos uploaded!

WunderBlogs® & News

Nearby

Snow Depth

Not available.

Earthquake Activity

City Distance Mag. Time & Date
No recent earthquake activity has been reported nearby.
Minimum magnitude displayed is 2.5.

Coastal Water Temperatures

Place Temperature
No Stations Reporting

Nearby Weather Stations